sensor_id;sensor_type;location;lat;lon;timestamp;P1;durP1;ratioP1;P2;durP2;ratioP2
67140;SDS011;54058;52.010;5.546;2023-09-19T00:02:02;3.38;;;1.05;;
67140;SDS011;54058;52.010;5.546;2023-09-19T00:04:31;6.85;;;1.17;;
67140;SDS011;54058;52.010;5.546;2023-09-19T00:06:58;6.03;;;1.30;;
67140;SDS011;54058;52.010;5.546;2023-09-19T00:09:24;4.15;;;1.00;;
67140;SDS011;54058;52.010;5.546;2023-09-19T00:11:52;3.05;;;1.10;;
67140;SDS011;54058;52.010;5.546;2023-09-19T00:14:18;3.92;;;1.08;;
67140;SDS011;54058;52.010;5.546;2023-09-19T00:16:44;7.95;;;1.60;;
67140;SDS011;54058;52.010;5.546;2023-09-19T00:19:12;5.80;;;1.20;;
67140;SDS011;54058;52.010;5.546;2023-09-19T00:21:39;6.97;;;1.45;;
67140;SDS011;54058;52.010;5.546;2023-09-19T00:24:06;3.63;;;1.08;;
67140;SDS011;54058;52.010;5.546;2023-09-19T00:26:32;6.82;;;1.52;;
67140;SDS011;54058;52.010;5.546;2023-09-19T00:31:29;7.40;;;1.85;;
67140;SDS011;54058;52.010;5.546;2023-09-19T00:33:55;3.72;;;1.42;;
67140;SDS011;54058;52.010;5.546;2023-09-19T00:36:27;5.72;;;1.25;;
67140;SDS011;54058;52.010;5.546;2023-09-19T00:38:54;6.10;;;1.13;;
67140;SDS011;54058;52.010;5.546;2023-09-19T00:41:19;4.88;;;1.33;;
67140;SDS011;54058;52.010;5.546;2023-09-19T00:43:46;4.50;;;1.10;;
67140;SDS011;54058;52.010;5.546;2023-09-19T00:46:12;3.95;;;1.05;;
67140;SDS011;54058;52.010;5.546;2023-09-19T00:48:42;5.93;;;1.20;;
67140;SDS011;54058;52.010;5.546;2023-09-19T00:51:11;7.63;;;1.52;;
67140;SDS011;54058;52.010;5.546;2023-09-19T00:53:39;10.35;;;1.50;;
67140;SDS011;54058;52.010;5.546;2023-09-19T00:56:11;6.68;;;1.30;;
67140;SDS011;54058;52.010;5.546;2023-09-19T00:58:37;6.45;;;1.50;;
67140;SDS011;54058;52.010;5.546;2023-09-19T01:01:03;3.47;;;1.20;;
67140;SDS011;54058;52.010;5.546;2023-09-19T01:03:32;6.25;;;1.50;;
67140;SDS011;54058;52.010;5.546;2023-09-19T01:05:59;9.02;;;1.60;;
67140;SDS011;54058;52.010;5.546;2023-09-19T01:08:28;5.72;;;1.35;;
67140;SDS011;54058;52.010;5.546;2023-09-19T01:11:03;5.45;;;1.90;;
67140;SDS011;54058;52.010;5.546;2023-09-19T01:14:14;6.55;;;1.48;;
67140;SDS011;54058;52.010;5.546;2023-09-19T01:16:58;7.75;;;1.52;;
67140;SDS011;54058;52.010;5.546;2023-09-19T01:25:24;5.28;;;1.42;;
67140;SDS011;54058;52.010;5.546;2023-09-19T01:28:12;6.07;;;1.50;;
67140;SDS011;54058;52.010;5.546;2023-09-19T01:30:42;6.30;;;2.30;;
67140;SDS011;54058;52.010;5.546;2023-09-19T01:33:09;7.35;;;1.52;;
67140;SDS011;54058;52.010;5.546;2023-09-19T01:35:39;7.60;;;1.30;;
67140;SDS011;54058;52.010;5.546;2023-09-19T01:38:08;13.15;;;2.28;;
67140;SDS011;54058;52.010;5.546;2023-09-19T01:40:43;6.25;;;1.67;;
67140;SDS011;54058;52.010;5.546;2023-09-19T01:51:06;8.32;;;2.00;;
67140;SDS011;54058;52.010;5.546;2023-09-19T01:53:55;10.55;;;2.10;;
67140;SDS011;54058;52.010;5.546;2023-09-19T01:59:24;7.10;;;1.80;;
67140;SDS011;54058;52.010;5.546;2023-09-19T02:01:53;8.82;;;1.80;;
67140;SDS011;54058;52.010;5.546;2023-09-19T02:04:20;8.15;;;1.80;;
67140;SDS011;54058;52.010;5.546;2023-09-19T02:06:46;13.70;;;2.42;;
67140;SDS011;54058;52.010;5.546;2023-09-19T02:09:14;11.70;;;2.08;;
67140;SDS011;54058;52.010;5.546;2023-09-19T02:11:40;8.33;;;2.00;;
67140;SDS011;54058;52.010;5.546;2023-09-19T02:14:06;16.77;;;2.65;;
67140;SDS011;54058;52.010;5.546;2023-09-19T02:16:33;8.98;;;1.83;;
67140;SDS011;54058;52.010;5.546;2023-09-19T02:18:59;8.25;;;1.73;;
67140;SDS011;54058;52.010;5.546;2023-09-19T02:21:25;9.25;;;1.63;;
67140;SDS011;54058;52.010;5.546;2023-09-19T02:23:54;6.13;;;1.58;;
67140;SDS011;54058;52.010;5.546;2023-09-19T02:26:20;6.53;;;1.90;;
67140;SDS011;54058;52.010;5.546;2023-09-19T02:28:46;7.43;;;1.42;;
67140;SDS011;54058;52.010;5.546;2023-09-19T02:31:12;8.73;;;1.63;;
67140;SDS011;54058;52.010;5.546;2023-09-19T02:33:38;13.82;;;2.00;;
67140;SDS011;54058;52.010;5.546;2023-09-19T02:36:03;12.65;;;2.00;;
67140;SDS011;54058;52.010;5.546;2023-09-19T02:38:29;6.75;;;1.65;;
67140;SDS011;54058;52.010;5.546;2023-09-19T02:40:55;9.50;;;1.70;;
67140;SDS011;54058;52.010;5.546;2023-09-19T02:43:21;12.02;;;1.77;;
67140;SDS011;54058;52.010;5.546;2023-09-19T02:45:47;6.57;;;2.10;;
67140;SDS011;54058;52.010;5.546;2023-09-19T02:48:18;5.32;;;1.50;;
67140;SDS011;54058;52.010;5.546;2023-09-19T02:50:44;9.17;;;2.00;;
67140;SDS011;54058;52.010;5.546;2023-09-19T02:53:12;7.75;;;1.60;;
67140;SDS011;54058;52.010;5.546;2023-09-19T02:55:38;9.45;;;2.20;;
67140;SDS011;54058;52.010;5.546;2023-09-19T03:00:32;9.05;;;1.52;;
67140;SDS011;54058;52.010;5.546;2023-09-19T03:03:00;5.40;;;1.20;;
67140;SDS011;54058;52.010;5.546;2023-09-19T03:05:27;8.18;;;1.60;;
67140;SDS011;54058;52.010;5.546;2023-09-19T03:07:55;14.45;;;3.20;;
67140;SDS011;54058;52.010;5.546;2023-09-19T03:10:21;13.38;;;2.15;;
67140;SDS011;54058;52.010;5.546;2023-09-19T03:12:48;19.63;;;2.25;;
67140;SDS011;54058;52.010;5.546;2023-09-19T03:15:15;13.70;;;1.65;;
67140;SDS011;54058;52.010;5.546;2023-09-19T03:20:09;8.02;;;1.60;;
67140;SDS011;54058;52.010;5.546;2023-09-19T03:22:37;5.63;;;1.70;;
67140;SDS011;54058;52.010;5.546;2023-09-19T03:25:03;11.50;;;1.83;;
67140;SDS011;54058;52.010;5.546;2023-09-19T03:27:32;7.57;;;1.30;;
67140;SDS011;54058;52.010;5.546;2023-09-19T03:29:59;8.20;;;1.45;;
67140;SDS011;54058;52.010;5.546;2023-09-19T03:32:24;7.72;;;2.03;;
67140;SDS011;54058;52.010;5.546;2023-09-19T03:34:50;8.77;;;1.50;;
67140;SDS011;54058;52.010;5.546;2023-09-19T03:37:16;10.32;;;1.42;;
67140;SDS011;54058;52.010;5.546;2023-09-19T03:39:42;10.47;;;1.60;;
67140;SDS011;54058;52.010;5.546;2023-09-19T03:42:08;6.15;;;1.33;;
67140;SDS011;54058;52.010;5.546;2023-09-19T03:44:33;7.80;;;1.80;;
67140;SDS011;54058;52.010;5.546;2023-09-19T03:46:59;9.68;;;1.85;;
67140;SDS011;54058;52.010;5.546;2023-09-19T03:49:25;5.30;;;1.50;;
67140;SDS011;54058;52.010;5.546;2023-09-19T03:51:50;8.90;;;2.42;;
67140;SDS011;54058;52.010;5.546;2023-09-19T03:54:16;13.25;;;2.20;;
67140;SDS011;54058;52.010;5.546;2023-09-19T03:56:42;7.75;;;2.13;;
67140;SDS011;54058;52.010;5.546;2023-09-19T03:59:09;15.85;;;2.55;;
67140;SDS011;54058;52.010;5.546;2023-09-19T04:01:34;14.55;;;2.15;;
67140;SDS011;54058;52.010;5.546;2023-09-19T04:04:00;7.05;;;2.03;;
67140;SDS011;54058;52.010;5.546;2023-09-19T04:06:33;13.02;;;1.33;;
67140;SDS011;54058;52.010;5.546;2023-09-19T04:11:26;6.32;;;1.52;;
67140;SDS011;54058;52.010;5.546;2023-09-19T04:13:52;7.45;;;1.60;;
67140;SDS011;54058;52.010;5.546;2023-09-19T04:16:18;7.72;;;1.60;;
67140;SDS011;54058;52.010;5.546;2023-09-19T04:18:44;10.70;;;1.92;;
67140;SDS011;54058;52.010;5.546;2023-09-19T04:21:10;8.45;;;1.80;;
67140;SDS011;54058;52.010;5.546;2023-09-19T04:23:35;7.70;;;1.92;;
67140;SDS011;54058;52.010;5.546;2023-09-19T04:26:01;8.68;;;1.55;;
67140;SDS011;54058;52.010;5.546;2023-09-19T04:28:29;9.70;;;1.85;;
67140;SDS011;54058;52.010;5.546;2023-09-19T04:30:56;9.97;;;2.27;;
67140;SDS011;54058;52.010;5.546;2023-09-19T04:33:21;10.30;;;1.65;;
67140;SDS011;54058;52.010;5.546;2023-09-19T04:35:48;9.82;;;1.63;;
67140;SDS011;54058;52.010;5.546;2023-09-19T04:38:15;9.93;;;1.73;;
67140;SDS011;54058;52.010;5.546;2023-09-19T04:40:42;4.78;;;1.42;;
67140;SDS011;54058;52.010;5.546;2023-09-19T04:43:08;7.78;;;1.60;;
67140;SDS011;54058;52.010;5.546;2023-09-19T04:45:34;7.88;;;2.05;;
67140;SDS011;54058;52.010;5.546;2023-09-19T04:47:59;8.82;;;2.17;;
67140;SDS011;54058;52.010;5.546;2023-09-19T04:50:25;10.48;;;1.90;;
67140;SDS011;54058;52.010;5.546;2023-09-19T04:52:52;11.68;;;2.10;;
67140;SDS011;54058;52.010;5.546;2023-09-19T04:55:18;10.35;;;2.15;;
67140;SDS011;54058;52.010;5.546;2023-09-19T05:00:17;7.03;;;1.42;;
67140;SDS011;54058;52.010;5.546;2023-09-19T05:02:44;5.88;;;1.63;;
67140;SDS011;54058;52.010;5.546;2023-09-19T05:05:11;10.13;;;2.05;;
67140;SDS011;54058;52.010;5.546;2023-09-19T05:07:41;7.78;;;1.63;;
67140;SDS011;54058;52.010;5.546;2023-09-19T05:10:07;9.68;;;2.03;;
67140;SDS011;54058;52.010;5.546;2023-09-19T05:12:34;9.95;;;1.77;;
67140;SDS011;54058;52.010;5.546;2023-09-19T05:15:01;11.68;;;1.88;;
67140;SDS011;54058;52.010;5.546;2023-09-19T05:17:33;20.35;;;1.90;;
67140;SDS011;54058;52.010;5.546;2023-09-19T05:19:59;10.25;;;1.85;;
67140;SDS011;54058;52.010;5.546;2023-09-19T05:22:49;9.75;;;1.80;;
67140;SDS011;54058;52.010;5.546;2023-09-19T05:25:15;15.02;;;1.90;;
67140;SDS011;54058;52.010;5.546;2023-09-19T05:27:42;7.88;;;1.38;;
67140;SDS011;54058;52.010;5.546;2023-09-19T05:30:08;3.63;;;1.48;;
67140;SDS011;54058;52.010;5.546;2023-09-19T05:32:34;4.55;;;1.50;;
67140;SDS011;54058;52.010;5.546;2023-09-19T05:35:00;11.32;;;2.47;;
67140;SDS011;54058;52.010;5.546;2023-09-19T05:37:26;13.93;;;2.05;;
67140;SDS011;54058;52.010;5.546;2023-09-19T05:39:51;8.65;;;1.40;;
67140;SDS011;54058;52.010;5.546;2023-09-19T05:42:18;9.05;;;1.75;;
67140;SDS011;54058;52.010;5.546;2023-09-19T05:44:44;10.98;;;1.55;;
67140;SDS011;54058;52.010;5.546;2023-09-19T05:47:10;11.18;;;1.63;;
67140;SDS011;54058;52.010;5.546;2023-09-19T05:49:35;8.82;;;2.17;;
67140;SDS011;54058;52.010;5.546;2023-09-19T05:52:07;10.98;;;2.25;;
67140;SDS011;54058;52.010;5.546;2023-09-19T05:54:33;11.07;;;1.75;;
67140;SDS011;54058;52.010;5.546;2023-09-19T05:56:59;11.68;;;1.90;;
67140;SDS011;54058;52.010;5.546;2023-09-19T05:59:26;12.90;;;2.00;;
67140;SDS011;54058;52.010;5.546;2023-09-19T06:01:52;12.88;;;1.67;;
67140;SDS011;54058;52.010;5.546;2023-09-19T06:04:18;11.68;;;2.45;;
67140;SDS011;54058;52.010;5.546;2023-09-19T06:06:44;11.60;;;1.95;;
67140;SDS011;54058;52.010;5.546;2023-09-19T06:09:10;12.23;;;1.85;;
67140;SDS011;54058;52.010;5.546;2023-09-19T06:11:35;12.32;;;2.03;;
67140;SDS011;54058;52.010;5.546;2023-09-19T06:14:02;12.05;;;1.83;;
67140;SDS011;54058;52.010;5.546;2023-09-19T06:16:31;12.07;;;2.10;;
67140;SDS011;54058;52.010;5.546;2023-09-19T06:18:57;10.10;;;1.70;;
67140;SDS011;54058;52.010;5.546;2023-09-19T06:21:24;13.43;;;2.33;;
67140;SDS011;54058;52.010;5.546;2023-09-19T06:23:51;12.20;;;1.98;;
67140;SDS011;54058;52.010;5.546;2023-09-19T06:26:17;10.37;;;1.77;;
67140;SDS011;54058;52.010;5.546;2023-09-19T06:28:43;10.93;;;1.90;;
67140;SDS011;54058;52.010;5.546;2023-09-19T06:31:09;7.07;;;2.08;;
67140;SDS011;54058;52.010;5.546;2023-09-19T06:33:38;7.32;;;2.13;;
67140;SDS011;54058;52.010;5.546;2023-09-19T06:36:05;8.48;;;1.60;;
67140;SDS011;54058;52.010;5.546;2023-09-19T06:38:31;13.10;;;1.77;;
67140;SDS011;54058;52.010;5.546;2023-09-19T06:40:59;12.20;;;1.70;;
67140;SDS011;54058;52.010;5.546;2023-09-19T06:45:52;11.23;;;2.33;;
67140;SDS011;54058;52.010;5.546;2023-09-19T06:48:19;10.63;;;2.10;;
67140;SDS011;54058;52.010;5.546;2023-09-19T06:50:46;7.25;;;1.52;;
67140;SDS011;54058;52.010;5.546;2023-09-19T06:53:13;10.77;;;1.90;;
67140;SDS011;54058;52.010;5.546;2023-09-19T06:55:39;10.80;;;1.98;;
67140;SDS011;54058;52.010;5.546;2023-09-19T06:58:05;8.88;;;2.17;;
67140;SDS011;54058;52.010;5.546;2023-09-19T07:00:31;11.40;;;1.98;;
67140;SDS011;54058;52.010;5.546;2023-09-19T07:03:05;8.25;;;1.77;;
67140;SDS011;54058;52.010;5.546;2023-09-19T07:05:38;9.25;;;1.95;;
67140;SDS011;54058;52.010;5.546;2023-09-19T07:08:05;7.40;;;1.67;;
67140;SDS011;54058;52.010;5.546;2023-09-19T07:10:33;9.40;;;2.10;;
67140;SDS011;54058;52.010;5.546;2023-09-19T07:15:28;11.25;;;2.08;;
67140;SDS011;54058;52.010;5.546;2023-09-19T07:17:58;5.25;;;1.30;;
67140;SDS011;54058;52.010;5.546;2023-09-19T07:20:25;13.50;;;2.00;;
67140;SDS011;54058;52.010;5.546;2023-09-19T07:22:52;12.80;;;2.10;;
67140;SDS011;54058;52.010;5.546;2023-09-19T07:25:20;11.30;;;2.05;;
67140;SDS011;54058;52.010;5.546;2023-09-19T07:27:46;8.75;;;1.90;;
67140;SDS011;54058;52.010;5.546;2023-09-19T07:30:12;6.95;;;1.83;;
67140;SDS011;54058;52.010;5.546;2023-09-19T07:32:38;9.55;;;1.98;;
67140;SDS011;54058;52.010;5.546;2023-09-19T07:35:06;11.10;;;2.03;;
67140;SDS011;54058;52.010;5.546;2023-09-19T07:37:32;13.10;;;1.90;;
67140;SDS011;54058;52.010;5.546;2023-09-19T07:40:07;16.50;;;2.75;;
67140;SDS011;54058;52.010;5.546;2023-09-19T07:42:36;14.02;;;2.28;;
67140;SDS011;54058;52.010;5.546;2023-09-19T07:45:04;16.15;;;2.42;;
67140;SDS011;54058;52.010;5.546;2023-09-19T07:47:30;8.47;;;1.77;;
67140;SDS011;54058;52.010;5.546;2023-09-19T07:49:57;10.63;;;1.88;;
67140;SDS011;54058;52.010;5.546;2023-09-19T07:52:24;18.08;;;2.58;;
67140;SDS011;54058;52.010;5.546;2023-09-19T07:54:49;14.10;;;2.38;;
67140;SDS011;54058;52.010;5.546;2023-09-19T07:57:15;11.65;;;2.13;;
67140;SDS011;54058;52.010;5.546;2023-09-19T07:59:41;11.50;;;1.73;;
67140;SDS011;54058;52.010;5.546;2023-09-19T08:02:07;12.88;;;1.95;;
67140;SDS011;54058;52.010;5.546;2023-09-19T08:04:40;10.40;;;2.38;;
67140;SDS011;54058;52.010;5.546;2023-09-19T08:07:10;8.05;;;1.63;;
67140;SDS011;54058;52.010;5.546;2023-09-19T08:09:36;12.63;;;2.30;;
67140;SDS011;54058;52.010;5.546;2023-09-19T08:12:03;9.50;;;1.90;;
67140;SDS011;54058;52.010;5.546;2023-09-19T08:14:30;11.13;;;2.28;;
67140;SDS011;54058;52.010;5.546;2023-09-19T08:16:56;20.67;;;2.83;;
67140;SDS011;54058;52.010;5.546;2023-09-19T08:19:23;10.50;;;2.05;;
67140;SDS011;54058;52.010;5.546;2023-09-19T08:21:57;14.63;;;2.40;;
67140;SDS011;54058;52.010;5.546;2023-09-19T08:24:24;11.25;;;2.78;;
67140;SDS011;54058;52.010;5.546;2023-09-19T08:26:54;10.88;;;2.65;;
67140;SDS011;54058;52.010;5.546;2023-09-19T08:29:21;11.80;;;2.25;;
67140;SDS011;54058;52.010;5.546;2023-09-19T08:31:52;13.82;;;2.30;;
67140;SDS011;54058;52.010;5.546;2023-09-19T08:34:22;15.13;;;2.65;;
67140;SDS011;54058;52.010;5.546;2023-09-19T08:36:51;9.05;;;2.30;;
67140;SDS011;54058;52.010;5.546;2023-09-19T08:39:21;10.10;;;2.15;;
67140;SDS011;54058;52.010;5.546;2023-09-19T08:41:47;8.23;;;2.42;;
67140;SDS011;54058;52.010;5.546;2023-09-19T08:44:13;14.47;;;2.40;;
67140;SDS011;54058;52.010;5.546;2023-09-19T08:46:40;11.00;;;2.90;;
67140;SDS011;54058;52.010;5.546;2023-09-19T08:49:19;11.13;;;2.50;;
67140;SDS011;54058;52.010;5.546;2023-09-19T08:52:05;19.85;;;2.17;;
67140;SDS011;54058;52.010;5.546;2023-09-19T08:54:51;9.95;;;1.95;;
67140;SDS011;54058;52.010;5.546;2023-09-19T08:57:20;9.25;;;2.28;;
67140;SDS011;54058;52.010;5.546;2023-09-19T08:59:47;12.93;;;2.63;;
67140;SDS011;54058;52.010;5.546;2023-09-19T09:02:15;11.32;;;1.95;;
67140;SDS011;54058;52.010;5.546;2023-09-19T09:04:43;10.15;;;2.25;;
67140;SDS011;54058;52.010;5.546;2023-09-19T09:07:12;10.73;;;2.17;;
67140;SDS011;54058;52.010;5.546;2023-09-19T09:09:39;9.32;;;2.03;;
67140;SDS011;54058;52.010;5.546;2023-09-19T09:12:12;10.98;;;2.30;;
67140;SDS011;54058;52.010;5.546;2023-09-19T09:14:47;11.88;;;2.22;;
67140;SDS011;54058;52.010;5.546;2023-09-19T09:17:17;14.93;;;2.05;;
67140;SDS011;54058;52.010;5.546;2023-09-19T09:19:45;11.48;;;2.58;;
67140;SDS011;54058;52.010;5.546;2023-09-19T09:22:11;7.13;;;1.70;;
67140;SDS011;54058;52.010;5.546;2023-09-19T09:24:37;17.23;;;2.77;;
67140;SDS011;54058;52.010;5.546;2023-09-19T09:27:15;10.90;;;2.28;;
67140;SDS011;54058;52.010;5.546;2023-09-19T09:29:44;10.55;;;2.00;;
67140;SDS011;54058;52.010;5.546;2023-09-19T09:32:22;9.63;;;1.98;;
67140;SDS011;54058;52.010;5.546;2023-09-19T09:34:54;16.17;;;2.53;;
67140;SDS011;54058;52.010;5.546;2023-09-19T09:37:22;11.15;;;2.08;;
67140;SDS011;54058;52.010;5.546;2023-09-19T09:39:51;12.80;;;2.10;;
67140;SDS011;54058;52.010;5.546;2023-09-19T09:42:35;10.60;;;2.53;;
67140;SDS011;54058;52.010;5.546;2023-09-19T09:45:13;13.60;;;2.20;;
67140;SDS011;54058;52.010;5.546;2023-09-19T09:47:47;11.20;;;2.05;;
67140;SDS011;54058;52.010;5.546;2023-09-19T09:50:28;14.65;;;2.83;;
67140;SDS011;54058;52.010;5.546;2023-09-19T09:53:26;9.37;;;2.10;;
67140;SDS011;54058;52.010;5.546;2023-09-19T09:56:05;10.65;;;2.05;;
67140;SDS011;54058;52.010;5.546;2023-09-19T09:58:36;13.00;;;2.45;;
67140;SDS011;54058;52.010;5.546;2023-09-19T10:01:05;12.50;;;2.10;;
67140;SDS011;54058;52.010;5.546;2023-09-19T10:03:38;10.75;;;2.05;;
67140;SDS011;54058;52.010;5.546;2023-09-19T10:06:09;11.80;;;2.47;;
67140;SDS011;54058;52.010;5.546;2023-09-19T10:09:00;9.43;;;2.20;;
67140;SDS011;54058;52.010;5.546;2023-09-19T10:11:45;8.70;;;2.28;;
67140;SDS011;54058;52.010;5.546;2023-09-19T10:14:16;8.85;;;2.10;;
67140;SDS011;54058;52.010;5.546;2023-09-19T10:16:48;12.68;;;2.53;;
67140;SDS011;54058;52.010;5.546;2023-09-19T10:19:23;12.20;;;2.10;;
67140;SDS011;54058;52.010;5.546;2023-09-19T10:22:11;7.40;;;1.88;;
67140;SDS011;54058;52.010;5.546;2023-09-19T10:24:39;11.05;;;2.25;;
67140;SDS011;54058;52.010;5.546;2023-09-19T10:27:06;17.25;;;2.40;;
67140;SDS011;54058;52.010;5.546;2023-09-19T10:29:35;10.82;;;2.15;;
67140;SDS011;54058;52.010;5.546;2023-09-19T10:32:04;13.40;;;2.20;;
67140;SDS011;54058;52.010;5.546;2023-09-19T10:37:00;11.65;;;2.05;;
67140;SDS011;54058;52.010;5.546;2023-09-19T10:39:30;9.93;;;1.92;;
67140;SDS011;54058;52.010;5.546;2023-09-19T10:41:57;7.40;;;1.50;;
67140;SDS011;54058;52.010;5.546;2023-09-19T10:44:30;8.30;;;1.77;;
67140;SDS011;54058;52.010;5.546;2023-09-19T10:46:57;8.50;;;1.80;;
67140;SDS011;54058;52.010;5.546;2023-09-19T10:49:24;7.95;;;1.95;;
67140;SDS011;54058;52.010;5.546;2023-09-19T10:51:54;11.43;;;1.88;;
67140;SDS011;54058;52.010;5.546;2023-09-19T10:54:26;11.05;;;1.67;;
67140;SDS011;54058;52.010;5.546;2023-09-19T10:56:59;6.15;;;1.73;;
67140;SDS011;54058;52.010;5.546;2023-09-19T10:59:25;12.23;;;2.38;;
67140;SDS011;54058;52.010;5.546;2023-09-19T11:01:59;13.07;;;2.08;;
67140;SDS011;54058;52.010;5.546;2023-09-19T11:04:40;10.55;;;1.63;;
67140;SDS011;54058;52.010;5.546;2023-09-19T11:07:06;11.90;;;2.37;;
67140;SDS011;54058;52.010;5.546;2023-09-19T11:15:06;6.88;;;2.03;;
67140;SDS011;54058;52.010;5.546;2023-09-19T11:17:39;12.70;;;2.22;;
67140;SDS011;54058;52.010;5.546;2023-09-19T11:20:18;9.35;;;1.77;;
67140;SDS011;54058;52.010;5.546;2023-09-19T11:30:32;8.63;;;1.90;;
67140;SDS011;54058;52.010;5.546;2023-09-19T11:36:12;10.35;;;2.50;;
67140;SDS011;54058;52.010;5.546;2023-09-19T11:46:26;7.30;;;1.83;;
67140;SDS011;54058;52.010;5.546;2023-09-19T11:48:53;6.97;;;2.05;;
67140;SDS011;54058;52.010;5.546;2023-09-19T11:51:20;9.25;;;1.90;;
67140;SDS011;54058;52.010;5.546;2023-09-19T11:53:52;13.52;;;1.83;;
67140;SDS011;54058;52.010;5.546;2023-09-19T11:56:20;8.85;;;1.88;;
67140;SDS011;54058;52.010;5.546;2023-09-19T11:58:49;10.48;;;1.67;;
67140;SDS011;54058;52.010;5.546;2023-09-19T12:01:42;5.97;;;1.38;;
67140;SDS011;54058;52.010;5.546;2023-09-19T12:04:15;7.63;;;1.25;;
67140;SDS011;54058;52.010;5.546;2023-09-19T12:06:43;4.38;;;1.25;;
67140;SDS011;54058;52.010;5.546;2023-09-19T12:09:23;4.68;;;1.38;;
67140;SDS011;54058;52.010;5.546;2023-09-19T12:11:50;6.20;;;1.50;;
67140;SDS011;54058;52.010;5.546;2023-09-19T12:14:23;6.22;;;1.80;;
67140;SDS011;54058;52.010;5.546;2023-09-19T12:16:55;13.68;;;1.50;;
67140;SDS011;54058;52.010;5.546;2023-09-19T12:19:22;5.45;;;1.00;;
67140;SDS011;54058;52.010;5.546;2023-09-19T12:21:58;7.57;;;0.98;;
67140;SDS011;54058;52.010;5.546;2023-09-19T12:24:31;7.60;;;1.33;;
67140;SDS011;54058;52.010;5.546;2023-09-19T12:27:01;7.40;;;1.88;;
67140;SDS011;54058;52.010;5.546;2023-09-19T12:29:44;4.65;;;1.50;;
67140;SDS011;54058;52.010;5.546;2023-09-19T12:32:14;2.10;;;0.88;;
67140;SDS011;54058;52.010;5.546;2023-09-19T12:34:52;3.13;;;1.30;;
67140;SDS011;54058;52.010;5.546;2023-09-19T12:37:19;8.15;;;1.33;;
67140;SDS011;54058;52.010;5.546;2023-09-19T12:39:52;6.85;;;1.20;;
67140;SDS011;54058;52.010;5.546;2023-09-19T12:42:39;3.10;;;0.90;;
67140;SDS011;54058;52.010;5.546;2023-09-19T12:47:34;4.20;;;1.05;;
67140;SDS011;54058;52.010;5.546;2023-09-19T12:50:13;2.67;;;0.97;;
67140;SDS011;54058;52.010;5.546;2023-09-19T12:52:45;10.75;;;1.40;;
67140;SDS011;54058;52.010;5.546;2023-09-19T12:55:26;5.10;;;1.13;;
67140;SDS011;54058;52.010;5.546;2023-09-19T12:58:14;9.98;;;1.40;;
67140;SDS011;54058;52.010;5.546;2023-09-19T13:00:44;8.00;;;1.20;;
67140;SDS011;54058;52.010;5.546;2023-09-19T13:03:11;3.85;;;1.23;;
67140;SDS011;54058;52.010;5.546;2023-09-19T13:05:50;4.50;;;1.02;;
67140;SDS011;54058;52.010;5.546;2023-09-19T13:08:17;3.85;;;1.23;;
67140;SDS011;54058;52.010;5.546;2023-09-19T13:16:52;7.68;;;1.00;;
67140;SDS011;54058;52.010;5.546;2023-09-19T13:20:01;7.22;;;0.90;;
67140;SDS011;54058;52.010;5.546;2023-09-19T13:22:41;6.25;;;0.90;;
67140;SDS011;54058;52.010;5.546;2023-09-19T13:25:14;3.47;;;1.00;;
67140;SDS011;54058;52.010;5.546;2023-09-19T13:27:43;3.45;;;0.82;;
67140;SDS011;54058;52.010;5.546;2023-09-19T13:30:11;5.03;;;1.15;;
67140;SDS011;54058;52.010;5.546;2023-09-19T13:32:38;2.35;;;0.82;;
67140;SDS011;54058;52.010;5.546;2023-09-19T13:35:05;3.75;;;1.00;;
67140;SDS011;54058;52.010;5.546;2023-09-19T13:37:34;3.17;;;0.80;;
67140;SDS011;54058;52.010;5.546;2023-09-19T13:40:07;6.25;;;1.08;;
67140;SDS011;54058;52.010;5.546;2023-09-19T13:42:33;4.45;;;0.93;;
67140;SDS011;54058;52.010;5.546;2023-09-19T13:45:01;6.03;;;1.02;;
67140;SDS011;54058;52.010;5.546;2023-09-19T13:47:29;5.50;;;1.10;;
67140;SDS011;54058;52.010;5.546;2023-09-19T13:49:55;1.95;;;0.77;;
67140;SDS011;54058;52.010;5.546;2023-09-19T13:52:22;3.00;;;1.00;;
67140;SDS011;54058;52.010;5.546;2023-09-19T13:54:48;4.85;;;1.00;;
67140;SDS011;54058;52.010;5.546;2023-09-19T13:57:17;2.20;;;0.70;;
67140;SDS011;54058;52.010;5.546;2023-09-19T13:59:43;2.30;;;0.70;;
67140;SDS011;54058;52.010;5.546;2023-09-19T14:02:09;2.33;;;0.77;;
67140;SDS011;54058;52.010;5.546;2023-09-19T14:04:35;7.13;;;0.90;;
67140;SDS011;54058;52.010;5.546;2023-09-19T14:07:01;2.37;;;0.90;;
67140;SDS011;54058;52.010;5.546;2023-09-19T14:09:27;5.95;;;1.02;;
67140;SDS011;54058;52.010;5.546;2023-09-19T14:11:52;4.33;;;0.90;;
67140;SDS011;54058;52.010;5.546;2023-09-19T14:14:18;5.33;;;1.20;;
67140;SDS011;54058;52.010;5.546;2023-09-19T14:16:45;4.90;;;0.90;;
67140;SDS011;54058;52.010;5.546;2023-09-19T14:19:12;6.22;;;1.00;;
67140;SDS011;54058;52.010;5.546;2023-09-19T14:21:40;3.95;;;0.85;;
67140;SDS011;54058;52.010;5.546;2023-09-19T14:24:05;9.13;;;0.93;;
67140;SDS011;54058;52.010;5.546;2023-09-19T14:26:37;5.35;;;1.17;;
67140;SDS011;54058;52.010;5.546;2023-09-19T14:29:04;4.88;;;1.30;;
67140;SDS011;54058;52.010;5.546;2023-09-19T14:31:33;5.35;;;0.90;;
67140;SDS011;54058;52.010;5.546;2023-09-19T14:33:59;5.05;;;1.08;;
67140;SDS011;54058;52.010;5.546;2023-09-19T14:36:25;2.67;;;0.93;;
67140;SDS011;54058;52.010;5.546;2023-09-19T14:38:54;4.55;;;0.90;;
67140;SDS011;54058;52.010;5.546;2023-09-19T14:41:20;4.32;;;1.13;;
67140;SDS011;54058;52.010;5.546;2023-09-19T14:43:46;3.47;;;0.77;;
67140;SDS011;54058;52.010;5.546;2023-09-19T14:46:12;9.23;;;1.63;;
67140;SDS011;54058;52.010;5.546;2023-09-19T14:48:39;7.28;;;1.17;;
67140;SDS011;54058;52.010;5.546;2023-09-19T14:51:05;5.30;;;1.17;;
67140;SDS011;54058;52.010;5.546;2023-09-19T14:53:37;6.13;;;1.50;;
67140;SDS011;54058;52.010;5.546;2023-09-19T14:56:03;7.23;;;0.93;;
67140;SDS011;54058;52.010;5.546;2023-09-19T14:58:30;2.88;;;0.85;;
67140;SDS011;54058;52.010;5.546;2023-09-19T15:01:04;2.38;;;0.90;;
67140;SDS011;54058;52.010;5.546;2023-09-19T15:03:31;5.38;;;1.10;;
67140;SDS011;54058;52.010;5.546;2023-09-19T15:08:25;5.80;;;1.23;;
67140;SDS011;54058;52.010;5.546;2023-09-19T15:10:50;4.87;;;1.30;;
67140;SDS011;54058;52.010;5.546;2023-09-19T15:13:18;4.40;;;1.05;;
67140;SDS011;54058;52.010;5.546;2023-09-19T15:15:43;4.33;;;0.90;;
67140;SDS011;54058;52.010;5.546;2023-09-19T15:18:12;4.80;;;1.13;;
67140;SDS011;54058;52.010;5.546;2023-09-19T15:20:42;5.87;;;1.33;;
67140;SDS011;54058;52.010;5.546;2023-09-19T15:23:09;5.32;;;1.42;;
67140;SDS011;54058;52.010;5.546;2023-09-19T15:25:35;4.90;;;1.40;;
67140;SDS011;54058;52.010;5.546;2023-09-19T15:28:00;3.90;;;1.00;;
67140;SDS011;54058;52.010;5.546;2023-09-19T15:30:36;7.93;;;1.38;;
67140;SDS011;54058;52.010;5.546;2023-09-19T15:33:03;4.35;;;1.23;;
67140;SDS011;54058;52.010;5.546;2023-09-19T15:35:29;5.60;;;1.53;;
67140;SDS011;54058;52.010;5.546;2023-09-19T15:37:54;8.90;;;1.57;;
67140;SDS011;54058;52.010;5.546;2023-09-19T15:40:21;5.10;;;1.40;;
67140;SDS011;54058;52.010;5.546;2023-09-19T15:42:49;3.63;;;1.55;;
67140;SDS011;54058;52.010;5.546;2023-09-19T15:45:14;4.73;;;1.13;;
67140;SDS011;54058;52.010;5.546;2023-09-19T15:47:41;3.15;;;1.42;;
67140;SDS011;54058;52.010;5.546;2023-09-19T15:50:08;9.40;;;1.50;;
67140;SDS011;54058;52.010;5.546;2023-09-19T15:52:40;4.18;;;1.88;;
67140;SDS011;54058;52.010;5.546;2023-09-19T15:55:07;4.80;;;1.40;;
67140;SDS011;54058;52.010;5.546;2023-09-19T15:57:34;9.68;;;1.58;;
67140;SDS011;54058;52.010;5.546;2023-09-19T16:00:03;5.15;;;1.90;;
67140;SDS011;54058;52.010;5.546;2023-09-19T16:02:35;7.20;;;1.40;;
67140;SDS011;54058;52.010;5.546;2023-09-19T16:05:01;7.10;;;1.30;;
67140;SDS011;54058;52.010;5.546;2023-09-19T16:07:30;6.03;;;1.60;;